Latest Weather Observations for Townsville

IDQ60801

Issued at 8:32 pm EST Sunday 19 April 2015 (issued every 30 minutes, with the page automatically refreshed every 10 minutes)

About weather observations | Map of weather stations | Latest weather observations for QLD | Other Formats
Station Details ID: 032040 Name: TOWNSVILLE AERO Lat: -19.25 Lon: 146.77 Height: 4.34 m
Data from the previous 72 hours. | See also: Recent months at Townsville
Date/Time
EST
Temp
°C
App
Temp
°C
Dew
Point
Rel
Hum
%
Delta-T
°C
Wind Press
QNH
hPa
Press
MSL
hPa
Rain
since 9 am
mm
Dir
 
Spd
km/h
Gust
km/h
Spd
kts
Gust
kts
19/08:00pm 26.3 29.9 22.3 78 2.7 E 7 11 4 6 1014.8 - 0.0
19/07:30pm 26.8 28.8 22.2 76 3.1 ENE 15 20 8 11 1014.3 - 0.0
19/07:00pm 27.0 28.8 21.9 73 3.4 ENE 15 17 8 9 1014.1 - 0.0
19/06:30pm 27.0 29.3 22.1 74 3.3 ENE 13 17 7 9 1013.8 - 0.0
19/05:30pm 27.9 29.3 21.8 69 4.1 NE 17 22 9 12 1013.7 - 0.0
19/05:00pm 28.4 29.3 22.0 68 4.3 ENE 20 26 11 14 1013.4 - 0.0
19/04:30pm 29.3 30.1 21.7 63 5.1 NE 20 26 11 14 1013.4 - 0.0
19/04:00pm 29.7 29.3 21.7 62 5.4 ENE 26 32 14 17 1013.2 - 0.0
19/03:30pm 29.4 28.6 21.7 63 5.2 ENE 28 33 15 18 1013.1 - 0.0
19/03:00pm 30.2 29.6 21.9 61 5.6 ENE 28 35 15 19 1013.3 1013.2 0.0
19/02:30pm 30.5 30.2 22.6 62 5.4 ENE 28 33 15 18 1013.5 - 0.0
19/02:00pm 30.8 30.4 22.3 60 5.8 ENE 28 37 15 20 1014.1 - 0.0
19/01:30pm 30.8 30.2 21.9 59 6.0 ENE 28 32 15 17 1014.3 - 0.0
19/01:00pm 30.1 29.6 22.1 62 5.4 ENE 28 33 15 18 1014.7 - 0.0
19/12:30pm 30.6 29.2 21.2 57 6.3 ENE 30 37 16 20 1015.2 - 0.0
19/12:00pm 31.0 30.3 20.3 53 7.1 E 24 33 13 18 1015.8 1015.7 0.0
19/11:30am 30.9 29.7 21.5 57 6.3 ENE 30 39 16 21 1016.3 - 0.0
19/10:30am 30.7 30.9 21.3 57 6.3 ESE 22 30 12 16 1016.9 - 0.0
19/10:00am 29.6 30.3 21.2 60 5.6 ESE 19 26 10 14 1016.9 - 0.0
19/09:30am 29.0 28.6 20.9 61 5.4 SE 24 32 13 17 1016.9 - 0.0
19/09:00am 28.4 30.2 21.2 65 4.8 ESE 13 17 7 9 1016.8 1016.7 0.2
19/08:00am 26.4 29.1 21.3 73 3.4 S 9 13 5 7 1016.4 - 0.2
19/07:00am 24.4 27.0 21.2 82 2.1 S 9 11 5 6 1015.5 - 0.2
19/06:30am 23.8 26.2 20.9 84 1.9 SSE 9 11 5 6 1015.2 - 0.2
19/05:30am 24.2 26.7 21.0 82 2.1 SE 9 11 5 6 1014.6 - 0.2
19/05:00am 24.6 27.3 21.4 82 2.1 SSE 9 13 5 7 1014.3 - 0.2
19/04:30am 24.2 27.2 21.3 84 1.9 SE 7 11 4 6 1014.0 - 0.2
19/04:00am 24.5 29.0 21.5 83 2.0 CALM 0 0 0 0 1014.1 - 0.2
19/03:30am 24.7 27.1 21.5 82 2.1 SE 11 13 6 7 1014.2 - 0.2
19/03:00am 25.0 27.3 21.4 80 2.4 SE 11 15 6 8 1014.4 1014.3 0.2
19/02:30am 25.3 27.1 21.2 78 2.7 ESE 13 15 7 8 1014.6 - 0.2
19/02:00am 25.3 27.1 21.2 78 2.7 SE 13 17 7 9 1015.0 - 0.2
19/01:30am 25.7 27.2 21.2 76 3.0 ESE 15 19 8 10 1015.4 - 0.2
19/01:00am 25.4 27.0 20.8 75 3.0 ESE 13 17 7 9 1015.7 - 0.2
19/12:30am 25.2 26.7 20.6 75 3.0 SE 13 15 7 8 1016.0 - 0.2
19/12:00am 25.2 26.7 20.6 75 3.0 SE 13 15 7 8 1016.0 1015.9 0.2
 
Date/Time
EST
Temp
°C
App
Temp
°C
Dew
Point
Rel
Hum
%
Delta-T
°C
Wind Press
QNH
hPa
Press
MSL
hPa
Rain
since 9 am
mm
Dir
 
Spd
km/h
Gust
km/h
Spd
kts
Gust
kts
18/11:30pm 25.1 27.0 20.5 75 3.0 SE 11 13 6 7 1016.0 - 0.2
18/11:00pm 26.0 27.8 20.3 71 3.7 SE 11 15 6 8 1016.3 - 0.2
18/10:30pm 25.9 27.3 20.4 71 3.6 ESE 13 17 7 9 1016.3 - 0.2
18/10:00pm 26.1 27.4 20.1 69 3.9 SE 13 17 7 9 1016.4 - 0.2
18/09:30pm 26.1 27.3 19.8 68 4.1 ESE 13 17 7 9 1016.4 - 0.2
18/09:00pm 26.2 27.2 19.5 66 4.3 ESE 13 17 7 9 1016.2 1016.1 0.2
18/08:30pm 26.3 27.5 20.0 68 4.1 SE 13 17 7 9 1015.9 - 0.2
18/08:00pm 26.7 27.1 19.9 66 4.4 ESE 17 26 9 14 1015.6 - 0.2
18/07:30pm 27.0 27.4 19.9 65 4.6 E 17 26 9 14 1015.4 - 0.2
18/07:00pm 27.4 27.0 20.1 64 4.8 E 22 33 12 18 1014.8 - 0.2
18/06:30pm 27.4 27.6 20.1 64 4.8 E 19 30 10 16 1014.6 - 0.2
18/06:00pm 27.4 27.0 20.1 64 4.8 E 22 30 12 16 1014.3 1014.2 0.2
18/05:30pm 28.1 26.4 20.5 63 5.0 E 30 35 16 19 1014.3 - 0.2
18/05:00pm 28.2 28.1 20.8 64 4.9 E 22 33 12 18 1014.2 - 0.2
18/04:30pm 29.0 27.6 20.5 60 5.6 E 28 37 15 20 1013.8 - 0.2
18/04:00pm 29.7 28.0 20.5 57 6.1 E 30 39 16 21 1013.7 - 0.2
18/03:30pm 28.8 27.0 20.3 60 5.6 E 30 41 16 22 1013.6 - 0.2
18/03:00pm 29.6 28.0 20.7 58 5.9 E 30 39 16 21 1013.8 1013.7 0.2
18/02:30pm 30.3 28.3 20.7 56 6.4 E 32 46 17 25 1013.9 - 0.2
18/02:00pm 28.9 26.7 20.7 61 5.4 E 33 46 18 25 1014.2 - 0.2
18/01:30pm 29.9 28.4 20.9 58 6.0 ESE 30 39 16 21 1014.7 - 0.2
18/01:00pm 28.9 26.8 20.6 61 5.5 E 32 44 17 24 1015.0 - 0.2
18/12:30pm 30.7 29.3 20.4 54 6.8 E 28 43 15 23 1015.2 - 0.2
18/12:00pm 31.0 29.7 20.6 54 6.9 ESE 28 43 15 23 1015.5 1015.4 0.2
18/11:30am 30.2 28.8 20.4 55 6.5 ESE 28 39 15 21 1016.0 - 0.2
18/11:00am 29.5 28.0 20.2 57 6.1 ESE 28 32 15 17 1016.6 - 0.2
18/10:30am 28.7 29.5 20.7 62 5.3 SE 17 26 9 14 1017.0 - 0.2
18/10:00am 27.9 28.8 20.8 65 4.7 SSE 17 26 9 14 1017.3 - 0.0
18/09:30am 26.9 28.7 21.2 71 3.8 SSW 13 19 7 10 1017.1 - 0.0
18/09:00am 26.0 28.3 21.3 75 3.1 S 11 13 6 7 1017.0 1016.9 0.0
18/08:30am 25.1 28.1 22.0 83 2.1 SW 9 13 5 7 1016.9 - 0.0
18/08:00am 24.7 26.3 20.7 78 2.6 SW 13 15 7 8 1016.1 - 0.0
18/07:30am 23.5 25.6 20.9 85 1.7 WSW 11 11 6 6 1015.8 - 0.0
18/07:00am 22.6 24.1 20.6 88 1.3 W 13 15 7 8 1015.8 - 0.0
18/06:30am 23.1 24.7 20.0 83 2.0 NNW 11 17 6 9 1015.6 - 0.0
18/06:00am 24.5 26.4 19.7 74 3.1 SE 9 11 5 6 1014.9 1014.8 0.0
18/05:30am 24.7 24.5 19.4 72 3.4 S 19 22 10 12 1014.8 - 0.0
18/05:00am 24.3 25.0 19.6 75 3.0 SSE 15 20 8 11 1014.6 - 0.0
18/04:30am 24.0 24.3 19.6 76 2.8 SE 17 24 9 13 1014.5 - 0.0
18/04:00am 23.5 22.5 20.4 83 2.0 SE 26 37 14 20 1014.4 - 0.0
18/03:30am 24.6 24.7 20.0 75 3.0 ESE 19 28 10 15 1014.5 - 0.0
18/03:00am 24.9 25.6 18.8 69 3.9 ESE 13 17 7 9 1014.5 1014.4 0.0
18/02:30am 24.3 26.2 19.0 72 3.4 S 7 9 4 5 1014.7 - 0.0
18/02:00am 24.1 25.6 18.9 72 3.3 S 9 11 5 6 1015.0 - 0.0
18/01:30am 23.8 24.9 18.9 74 3.1 SSW 11 15 6 8 1015.2 - 0.0
18/01:00am 24.4 25.5 18.9 71 3.5 SSW 11 13 6 7 1015.7 - 0.0
18/12:30am 25.4 26.9 19.0 67 4.1 S 9 11 5 6 1016.2 - 0.0
18/12:00am 25.0 25.8 19.1 70 3.8 S 13 15 7 8 1016.3 1016.2 0.0
 
Date/Time
EST
Temp
°C
App
Temp
°C
Dew
Point
Rel
Hum
%
Delta-T
°C
Wind Press
QNH
hPa
Press
MSL
hPa
Rain
since 9 am
mm
Dir
 
Spd
km/h
Gust
km/h
Spd
kts
Gust
kts
17/11:30pm 24.5 26.2 19.3 73 3.3 S 9 11 5 6 1016.3 - 0.0
17/11:00pm 24.8 26.7 19.7 73 3.3 SE 9 13 5 7 1016.4 - 0.0
17/10:30pm 25.2 26.4 19.8 72 3.5 ESE 13 17 7 9 1016.3 - 0.0
17/10:00pm 25.5 26.7 19.8 70 3.7 ESE 13 19 7 10 1016.4 - 0.0
17/09:30pm 25.8 26.2 19.8 69 3.9 SE 17 20 9 11 1016.3 - 0.0
17/09:00pm 25.8 26.6 19.9 70 3.8 SE 15 19 8 10 1016.2 1016.1 0.0
17/08:30pm 26.3 26.2 20.0 68 4.1 ESE 20 28 11 15 1016.0 - 0.0
17/08:00pm 26.4 26.5 20.3 69 4.0 ESE 20 26 11 14 1015.8 - 0.0
17/07:30pm 26.8 26.2 20.4 68 4.2 ESE 24 33 13 18 1015.4 - 0.0
17/07:00pm 26.7 27.0 20.8 70 3.9 E 20 33 11 18 1015.0 - 0.0
17/06:30pm 26.9 26.9 21.0 70 3.9 E 22 30 12 16 1014.9 - 0.0
17/06:00pm 27.1 26.1 19.7 64 4.8 E 24 32 13 17 1014.7 1014.6 0.0
17/05:30pm 27.5 26.8 19.5 61 5.2 ESE 22 30 12 16 1014.4 - 0.0
17/05:00pm 28.0 26.6 20.4 63 5.0 E 28 33 15 18 1014.2 - 0.0
17/04:30pm 27.5 25.2 21.3 69 4.1 ENE 35 46 19 25 1013.9 - 0.0
17/04:23pm 28.6 27.5 21.1 64 5.0 E 28 46 15 25 1013.8 - 0.0
17/04:00pm 29.6 28.2 19.7 55 6.5 E 26 35 14 19 1013.7 - 0.0
17/03:30pm 29.4 27.7 19.8 56 6.3 E 28 37 15 20 1013.7 - 0.0
17/03:00pm 30.1 27.7 19.0 51 7.2 ENE 30 37 16 20 1013.8 1013.7 0.0
17/02:30pm 29.9 27.6 19.3 53 6.9 ENE 30 37 16 20 1014.0 - 0.0
17/02:00pm 30.1 27.2 18.8 50 7.3 E 32 39 17 21 1014.3 - 0.0
17/01:30pm 31.0 28.1 17.9 45 8.4 ENE 30 37 16 20 1014.7 - 0.0
17/01:00pm 30.6 27.7 17.0 44 8.6 E 28 37 15 20 1015.3 - 0.0
17/12:30pm 30.3 26.0 17.0 44 8.4 ENE 35 39 19 21 1015.7 - 0.0
17/12:00pm 30.5 27.4 16.6 43 8.7 E 28 46 15 25 1016.2 1016.1 0.0
17/11:30am 30.4 27.4 17.7 46 8.1 ESE 30 39 16 21 1016.9 - 0.0
17/11:00am 29.6 26.7 18.0 49 7.4 SE 30 39 16 21 1017.4 - 0.0
17/10:30am 28.7 26.3 18.2 53 6.7 ESE 28 39 15 21 1018.0 - 0.0
17/10:00am 29.9 28.2 18.0 48 7.6 ESE 24 33 13 18 1018.0 - 0.0
17/09:30am 28.2 26.7 18.5 55 6.2 SSE 24 33 13 18 1018.2 - 0.0
17/09:00am 27.2 25.8 18.8 60 5.4 SE 24 32 13 17 1018.2 1018.1 0.0
17/08:30am 26.7 25.0 18.9 62 5.0 SE 26 33 14 18 1018.1 - 0.0
17/08:00am 25.9 25.3 18.5 63 4.7 SE 19 28 10 15 1018.0 - 0.0
17/07:30am 24.8 25.8 18.7 69 3.9 SSE 11 15 6 8 1017.8 - 0.0
17/07:00am 23.9 24.2 18.7 72 3.3 SSE 15 19 8 10 1017.6 - 0.0
17/06:30am 23.2 23.4 18.6 75 2.9 SSE 15 19 8 10 1017.3 - 0.0
17/06:00am 23.6 25.0 18.7 74 3.1 S 9 11 5 6 1016.9 1016.8 0.0
17/05:30am 23.1 24.4 19.2 79 2.5 S 11 11 6 6 1016.7 - 0.0
17/05:00am 22.1 23.2 18.9 82 2.0 S 11 13 6 7 1016.5 - 0.0
17/04:30am 21.6 24.3 18.6 83 1.9 S 2 7 1 4 1016.3 - 0.0
17/04:00am 23.0 24.5 18.9 78 2.6 SSE 9 11 5 6 1016.2 - 0.0
17/03:30am 23.5 25.1 19.1 76 2.8 SE 9 13 5 7 1016.4 - 0.0
17/03:00am 23.9 24.6 18.9 73 3.2 SSE 13 17 7 9 1016.5 1016.4 0.0
17/02:30am 24.4 25.3 19.2 73 3.3 SSE 13 15 7 8 1016.7 - 0.0
17/02:00am 24.1 25.4 19.4 75 3.0 SE 11 15 6 8 1017.0 - 0.0
17/01:30am 24.5 24.6 19.2 72 3.4 SE 17 22 9 12 1017.8 - 0.0
17/01:00am 24.4 25.6 19.1 72 3.4 SE 11 13 6 7 1017.9 - 0.0
17/12:30am 24.5 25.2 18.8 70 3.6 SE 13 17 7 9 1018.2 - 0.0
17/12:00am 24.5 25.1 18.7 70 3.7 SE 13 17 7 9 1018.5 1018.4 0.0
 
Date/Time
EST
Temp
°C
App
Temp
°C
Dew
Point
Rel
Hum
%
Delta-T
°C
Wind Press
QNH
hPa
Press
MSL
hPa
Rain
since 9 am
mm
Dir
 
Spd
km/h
Gust
km/h
Spd
kts
Gust
kts
16/11:30pm 24.2 24.9 18.8 72 3.4 SE 13 13 7 7 1018.5 - 0.0
16/11:00pm 24.7 25.5 19.1 71 3.6 SE 13 17 7 9 1018.7 - 0.0
16/10:30pm 24.5 25.0 19.2 72 3.4 S 15 19 8 10 1019.0 - 0.0
16/10:00pm 24.9 25.5 19.5 72 3.5 SE 15 19 8 10 1019.1 - 0.0
16/09:30pm 24.6 25.6 19.5 73 3.3 SE 13 15 7 8 1019.1 - 0.0
16/09:00pm 25.0 25.5 19.2 70 3.7 SE 15 17 8 9 1019.0 1018.9 0.0

Other Formats:

Comma delimited format used in spreadsheet applications
http://www.bom.gov.au/fwo/IDQ60801/IDQ60801.94294.axf

JavaScript Object Notation format (JSON) in row-major order
http://www.bom.gov.au/fwo/IDQ60801/IDQ60801.94294.json